Time;durP1;ratioP1;P1;durP2;ratioP2;P2;SDS_P1;SDS_P2;PMS_P1;PMS_P2;Temp;Humidity;BMP_temperature;BMP_pressure;BME280_temperature;BME280_humidity;BME280_pressure;Samples;Min_cycle;Max_cycle;Signal;HPM_P1;HPM_P2
2022/11/24 00:01:03;;;;;;;21.07;11.23;;;9.60;96.60;;;9.69;62.62;93884.91;5029351;28;20457;-57
2022/11/24 00:03:30;;;;;;;24.40;11.77;;;9.60;96.80;;;9.65;62.58;93889.66;5029286;28;20455;-54
2022/11/24 00:06:06;;;;;;;24.40;11.80;;;9.60;96.90;;;9.64;63.10;93876.69;5029789;28;20465;-57
2022/11/24 00:08:34;;;;;;;23.00;11.67;;;9.60;97.40;;;9.61;62.60;93903.25;5029304;28;20599;-53
2022/11/24 00:11:06;;;;;;;19.73;11.00;;;9.60;97.10;;;9.58;62.84;93898.31;5029425;28;20803;-57
2022/11/24 00:13:33;;;;;;;26.70;11.80;;;9.50;97.40;;;9.55;62.49;93885.50;5029055;28;20534;-60
2022/11/24 00:16:09;;;;;;;15.77;11.07;;;9.50;97.20;;;9.52;62.69;93905.00;5029098;28;20456;-58
2022/11/24 00:18:37;;;;;;;21.00;10.70;;;9.50;97.30;;;9.48;63.17;93898.41;5029278;28;20870;-55
2022/11/24 00:21:04;;;;;;;15.50;10.83;;;9.40;97.60;;;9.47;63.04;93896.78;5028576;28;20762;-57
2022/11/24 00:23:31;;;;;;;23.60;11.03;;;9.40;97.40;;;9.48;63.34;93903.66;5028734;28;20449;-54
2022/11/24 00:26:06;;;;;;;18.00;10.37;;;9.40;97.80;;;9.46;64.26;93897.75;5028709;28;20453;-54
2022/11/24 00:28:33;;;;;;;14.97;9.00;;;9.40;98.40;;;9.45;63.40;93904.81;5028977;28;20448;-54
2022/11/24 00:31:01;;;;;;;20.00;9.47;;;9.40;98.00;;;9.42;63.30;93901.66;5028509;28;20960;-55
2022/11/24 00:33:28;;;;;;;21.00;7.00;;;9.40;97.90;;;9.43;63.25;93905.94;5029038;28;20455;-57
2022/11/24 00:35:56;;;;;;;15.10;7.50;;;9.40;98.00;;;9.43;63.47;93903.31;5026646;28;20991;-53
2022/11/24 00:38:23;;;;;;;17.70;8.70;;;9.40;98.00;;;9.47;63.20;93904.66;5024752;28;21034;-55
2022/11/24 00:40:51;;;;;;;14.60;7.13;;;9.40;98.30;;;9.46;63.45;93905.63;5028806;28;20452;-55
2022/11/24 00:43:19;;;;;;;17.83;8.47;;;9.40;98.20;;;9.47;63.33;93904.66;5028866;28;20858;-58
2022/11/24 00:45:47;;;;;;;10.50;7.20;;;9.40;98.00;;;9.46;64.04;93909.06;5028577;28;20455;-55
2022/11/24 00:48:14;;;;;;;10.50;7.80;;;9.40;98.30;;;9.45;63.48;93915.31;5028563;28;20967;-54
2022/11/24 00:50:41;;;;;;;12.77;7.10;;;9.40;98.30;;;9.45;63.67;93906.59;5028399;28;20595;-57
2022/11/24 00:53:08;;;;;;;11.50;7.40;;;9.40;98.30;;;9.45;63.33;93906.59;5028359;28;20460;-55
2022/11/24 00:55:36;;;;;;;12.57;6.43;;;9.40;98.30;;;9.43;63.08;93896.25;5025688;28;20550;-56
2022/11/24 00:58:03;;;;;;;10.73;5.80;;;9.40;98.10;;;9.39;63.54;93902.81;5028137;28;20492;-53
2022/11/24 01:00:31;;;;;;;7.87;4.70;;;9.40;98.40;;;9.35;63.99;93904.09;5027550;28;20550;-56
2022/11/24 01:02:59;;;;;;;6.80;4.73;;;9.30;98.50;;;9.31;63.54;93913.25;5028237;28;20444;-57
2022/11/24 01:05:26;;;;;;;7.97;4.63;;;9.30;98.20;;;9.27;63.95;93902.25;5027931;28;20931;-53
2022/11/24 01:07:53;;;;;;;8.80;5.30;;;9.20;98.40;;;9.25;64.20;93901.59;5028339;28;20471;-54
2022/11/24 01:10:20;;;;;;;8.23;5.20;;;9.20;98.60;;;9.23;63.96;93908.78;5028070;28;20488;-56
2022/11/24 01:12:49;;;;;;;6.00;4.77;;;9.20;98.60;;;9.20;63.81;93906.50;5028169;28;20453;-56
2022/11/24 01:15:16;;;;;;;10.63;5.83;;;9.10;98.60;;;9.18;64.02;93918.13;5028320;28;20516;-54
2022/11/24 01:17:45;;;;;;;8.40;4.67;;;9.10;98.80;;;9.16;64.38;93915.66;5028063;28;20496;-57
2022/11/24 01:20:12;;;;;;;10.07;4.73;;;9.10;99.10;;;9.17;63.85;93927.81;5028209;28;20508;-58
2022/11/24 01:22:40;;;;;;;8.80;5.40;;;9.10;98.80;;;9.19;64.35;93922.41;5028427;28;20874;-57
2022/11/24 01:25:09;;;;;;;9.03;5.07;;;9.10;98.90;;;9.21;63.96;93939.63;5027372;28;20488;-57
2022/11/24 01:27:36;;;;;;;10.53;5.57;;;9.20;99.00;;;9.23;64.10;93942.91;5027776;28;20456;-55
2022/11/24 01:30:04;;;;;;;17.60;9.83;;;9.20;99.00;;;9.24;64.21;93934.06;5028009;28;20461;-56
2022/11/24 01:32:32;;;;;;;25.50;12.53;;;9.20;99.20;;;9.24;64.28;93933.25;5028108;28;20457;-58
2022/11/24 01:35:00;;;;;;;22.13;12.53;;;9.20;99.00;;;9.20;64.33;93927.50;5027821;28;20973;-56
2022/11/24 01:37:27;;;;;;;21.57;14.07;;;9.20;99.00;;;9.18;64.04;93932.06;5027315;28;20499;-56
2022/11/24 01:39:55;;;;;;;30.43;17.20;;;9.10;98.90;;;9.19;64.62;93933.72;5027525;28;20461;-56
2022/11/24 01:42:22;;;;;;;37.83;19.27;;;9.10;99.10;;;9.21;64.12;93929.13;5027768;28;20487;-56
2022/11/24 01:44:51;;;;;;;35.40;16.60;;;9.10;99.10;;;9.22;64.70;93924.72;5027900;28;20558;-54
2022/11/24 01:47:28;;;;;;;33.87;18.47;;;9.20;99.30;;;9.20;64.32;93924.88;5027654;28;20445;-61
2022/11/24 01:49:57;;;;;;;29.93;18.77;;;9.20;99.20;;;9.19;64.07;93923.22;5023439;28;20480;-55
2022/11/24 01:52:28;;;;;;;26.60;15.77;;;9.10;99.00;;;9.19;64.32;93923.22;5023909;28;20456;-57
2022/11/24 01:54:57;;;;;;;29.47;16.33;;;9.10;99.10;;;9.17;64.39;93924.34;5026900;28;20993;-57
2022/11/24 01:57:26;;;;;;;29.60;16.30;;;9.10;99.20;;;9.14;64.42;93917.63;5027145;28;20565;-58
2022/11/24 01:59:58;;;;;;;35.50;18.23;;;9.10;99.00;;;9.13;64.10;93926.47;5027059;28;20558;-57
2022/11/24 02:02:25;;;;;;;30.97;17.00;;;9.10;99.10;;;9.14;64.57;93928.13;5026999;28;20507;-57
2022/11/24 02:04:52;;;;;;;34.00;18.20;;;9.10;99.20;;;9.13;64.12;93927.25;5027308;28;20830;-53
2022/11/24 02:07:20;;;;;;;32.87;17.53;;;9.10;99.20;;;9.16;64.64;93931.41;5027338;28;20571;-55
2022/11/24 02:09:50;;;;;;;29.47;16.50;;;9.10;99.20;;;9.16;63.99;93934.00;5026425;28;20994;-53
2022/11/24 02:12:17;;;;;;;29.50;16.60;;;9.10;99.10;;;9.17;64.42;93934.81;5026292;28;20449;-57
2022/11/24 02:14:44;;;;;;;31.37;15.27;;;9.10;99.10;;;9.16;64.27;93939.25;5026483;28;20480;-57
2022/11/24 02:17:12;;;;;;;27.27;14.80;;;9.10;99.20;;;9.15;64.31;93934.97;5023389;28;20492;-56
2022/11/24 02:19:46;;;;;;;27.30;12.90;;;9.10;99.10;;;9.14;63.88;93939.41;5019691;28;21068;-56
2022/11/24 02:22:16;;;;;;;21.87;13.00;;;9.10;99.10;;;9.15;63.97;93942.84;5025134;28;20533;-58
2022/11/24 02:24:49;;;;;;;23.40;14.23;;;9.10;99.10;;;9.14;64.14;93941.22;5023103;28;20474;-53
2022/11/24 02:27:18;;;;;;;21.33;12.50;;;9.10;99.30;;;9.14;63.92;93943.84;5025470;28;20457;-57
2022/11/24 02:29:45;;;;;;;22.53;12.23;;;9.10;99.10;;;9.16;64.05;93947.13;5026754;28;20487;-55
2022/11/24 02:32:13;;;;;;;20.13;11.40;;;9.10;99.10;;;9.15;63.82;93941.06;5026708;28;20456;-55
2022/11/24 02:34:40;;;;;;;21.03;11.43;;;9.10;99.00;;;9.18;63.76;93934.69;5026844;28;20488;-56
2022/11/24 02:37:07;;;;;;;16.60;10.30;;;9.10;99.10;;;9.17;63.79;93938.28;5026836;28;20492;-57
2022/11/24 02:39:34;;;;;;;21.53;10.20;;;9.10;99.00;;;9.18;64.12;93937.28;5025647;28;20841;-55
2022/11/24 02:42:04;;;;;;;20.30;11.67;;;9.20;99.00;;;9.18;63.73;93937.28;5022402;28;20507;-53
2022/11/24 02:44:36;;;;;;;17.90;10.00;;;9.20;99.10;;;9.18;63.93;93942.53;5022876;28;20522;-58
2022/11/24 02:47:05;;;;;;;21.87;10.63;;;9.10;99.10;;;9.17;63.96;93938.28;5026463;28;20860;-56
2022/11/24 02:49:32;;;;;;;22.97;11.60;;;9.10;99.10;;;9.16;63.67;93939.25;5026344;28;20480;-57
2022/11/24 02:52:00;;;;;;;20.90;11.43;;;9.10;99.20;;;9.15;64.24;93942.84;5026374;28;20453;-56
2022/11/24 02:54:27;;;;;;;17.03;9.87;;;9.10;99.30;;;9.17;64.09;93943.53;5025378;28;20469;-57
2022/11/24 02:56:54;;;;;;;19.00;11.30;;;9.10;99.30;;;9.18;64.03;93942.53;5026063;28;20484;-56
2022/11/24 02:59:21;;;;;;;14.30;9.67;;;9.10;99.20;;;9.19;64.14;93944.19;5026268;28;20482;-59
2022/11/24 03:01:50;;;;;;;16.73;10.23;;;9.10;99.30;;;9.18;64.54;93942.53;5025637;28;20965;-56
2022/11/24 03:04:17;;;;;;;20.23;10.13;;;9.10;99.40;;;9.18;63.83;93942.53;5025862;28;20485;-57
2022/11/24 03:06:44;;;;;;;26.73;9.50;;;9.10;99.30;;;9.19;64.44;93940.75;5025961;28;20460;-55
2022/11/24 03:09:12;;;;;;;15.37;9.97;;;9.10;99.40;;;9.20;64.54;93953.72;5026088;28;20844;-57
2022/11/24 03:11:40;;;;;;;14.67;9.60;;;9.10;99.40;;;9.22;64.29;93946.53;5025533;28;20464;-57
2022/11/24 03:14:08;;;;;;;18.43;8.87;;;9.20;99.40;;;9.22;64.23;93951.75;5025711;28;20531;-56
2022/11/24 03:16:35;;;;;;;18.20;9.50;;;9.20;99.50;;;9.24;64.37;93959.47;5024477;28;20460;-57
2022/11/24 03:19:03;;;;;;;16.60;8.00;;;9.20;99.50;;;9.22;64.39;93964.88;5022301;28;20476;-55
2022/11/24 03:21:31;;;;;;;16.33;7.07;;;9.20;99.50;;;9.26;64.40;93968.00;5025964;28;20800;-56
2022/11/24 03:23:58;;;;;;;9.67;4.17;;;9.20;99.40;;;9.25;64.13;93969.81;5024995;28;20606;-55
2022/11/24 03:26:26;;;;;;;7.63;4.80;;;9.20;99.20;;;9.25;63.89;93967.19;5025427;28;20960;-56
2022/11/24 03:28:56;;;;;;;12.03;4.77;;;9.20;99.00;;;9.26;63.84;93962.75;5025808;28;20484;-56
2022/11/24 03:31:23;;;;;;;6.77;4.63;;;9.20;99.00;;;9.26;63.43;93962.75;5025380;28;20464;-56
2022/11/24 03:33:50;;;;;;;11.83;4.73;;;9.20;98.90;;;9.27;63.88;93967.03;5025762;28;20488;-57
2022/11/24 03:36:19;;;;;;;5.70;3.73;;;9.20;98.90;;;9.27;63.54;93967.84;5025857;28;20946;-56
2022/11/24 03:38:46;;;;;;;9.13;4.30;;;9.20;99.00;;;9.29;63.59;93965.91;5025632;28;20488;-55
2022/11/24 03:41:13;;;;;;;14.83;4.10;;;9.20;98.90;;;9.29;63.57;93972.94;5025228;28;20487;-56
2022/11/24 03:43:41;;;;;;;11.87;4.77;;;9.30;98.90;;;9.31;63.52;93976.22;5025688;28;20898;-55
2022/11/24 03:46:08;;;;;;;10.90;5.07;;;9.30;98.90;;;9.33;63.67;93980.38;5025499;28;20467;-58
2022/11/24 03:48:36;;;;;;;8.97;4.60;;;9.30;98.90;;;9.35;63.45;93982.03;5025274;28;20938;-56
2022/11/24 03:51:03;;;;;;;10.50;4.67;;;9.30;98.70;;;9.32;63.39;93983.13;5025490;28;21028;-55
2022/11/24 03:53:32;;;;;;;7.00;4.27;;;9.30;98.70;;;9.30;63.47;93982.47;5025123;28;20460;-57
2022/11/24 03:55:59;;;;;;;6.27;4.50;;;9.20;98.60;;;9.29;63.56;93994.75;5024976;28;20483;-57
2022/11/24 03:58:26;;;;;;;22.77;5.13;;;9.20;98.70;;;9.30;63.57;93993.78;5025136;28;20503;-55
2022/11/24 04:00:54;;;;;;;9.20;4.30;;;9.30;98.90;;;9.27;63.02;93991.47;5021540;28;20467;-57
2022/11/24 04:03:22;;;;;;;13.03;4.27;;;9.20;98.70;;;9.25;63.44;93990.81;5022917;28;20461;-53
2022/11/24 04:05:49;;;;;;;12.37;4.93;;;9.20;98.90;;;9.26;63.43;93994.25;5025463;28;20535;-56
2022/11/24 04:08:16;;;;;;;15.93;5.13;;;9.20;99.00;;;9.26;63.34;93997.69;5024989;28;20460;-55
2022/11/24 04:10:45;;;;;;;8.60;4.90;;;9.20;98.90;;;9.21;63.49;93997.34;5025383;28;20445;-57
2022/11/24 04:13:12;;;;;;;9.10;5.23;;;9.10;98.90;;;9.18;63.47;94008.13;5025381;28;20848;-55
2022/11/24 04:15:40;;;;;;;9.90;5.20;;;9.10;98.90;;;9.17;63.71;93998.63;5025326;28;20469;-57
2022/11/24 04:18:08;;;;;;;10.83;5.13;;;9.10;99.10;;;9.20;64.13;93997.50;5025454;28;20488;-56
2022/11/24 04:20:35;;;;;;;9.50;5.43;;;9.10;99.20;;;9.23;63.85;94005.88;5025483;28;20476;-58
2022/11/24 04:23:03;;;;;;;7.33;5.30;;;9.20;99.30;;;9.22;63.90;94003.44;5024539;28;20457;-55
2022/11/24 04:25:30;;;;;;;11.53;5.63;;;9.20;99.40;;;9.22;64.02;94014.72;5025341;28;20484;-54
2022/11/24 04:27:59;;;;;;;13.27;5.90;;;9.20;99.50;;;9.24;64.18;94015.41;5025230;28;20457;-56
2022/11/24 04:30:27;;;;;;;18.93;5.87;;;9.20;99.70;;;9.26;64.73;94015.25;5024716;28;20464;-58
2022/11/24 04:32:54;;;;;;;12.70;6.93;;;9.20;99.70;;;9.28;64.27;94022.00;5023593;28;20495;-57
2022/11/24 04:35:21;;;;;;;13.43;6.83;;;9.20;99.80;;;9.30;64.25;94019.22;5025220;28;20465;-53
2022/11/24 04:37:48;;;;;;;14.67;7.67;;;9.20;99.70;;;9.32;64.04;94025.13;5028758;28;20492;-58
2022/11/24 04:40:17;;;;;;;9.77;7.00;;;9.20;99.70;;;9.34;64.69;94028.41;5028318;28;20475;-55
2022/11/24 04:42:44;;;;;;;10.50;7.33;;;9.20;99.90;;;9.36;64.87;94023.84;5028644;28;20603;-58
2022/11/24 04:45:13;;;;;;;13.03;7.70;;;9.30;99.90;;;9.38;64.22;94024.50;5024346;28;20479;-55
2022/11/24 04:47:40;;;;;;;14.40;8.30;;;9.30;99.90;;;9.38;64.34;94028.94;5028793;28;20821;-56
2022/11/24 04:50:09;;;;;;;18.23;9.87;;;9.30;99.70;;;9.33;64.61;94024.97;5028247;28;20476;-56
2022/11/24 04:52:36;;;;;;;16.20;8.77;;;9.20;99.90;;;9.27;65.07;94024.78;5027668;28;20492;-57
2022/11/24 04:55:04;;;;;;;12.03;8.23;;;9.20;99.90;;;9.21;64.99;94031.44;5028380;28;20892;-55
2022/11/24 04:57:31;;;;;;;12.03;6.97;;;9.20;99.90;;;9.15;65.34;94029.44;5028317;28;20888;-55
2022/11/24 04:59:58;;;;;;;18.17;7.80;;;9.10;99.90;;;9.18;65.58;94044.88;5028475;28;21032;-56
2022/11/24 05:02:27;;;;;;;14.30;8.90;;;9.10;99.90;;;9.20;65.39;94032.44;5027575;28;20827;-54
2022/11/24 05:04:54;;;;;;;19.20;9.20;;;9.10;99.90;;;9.21;64.93;94034.06;5027809;28;20518;-55
2022/11/24 05:07:22;;;;;;;16.77;8.47;;;9.20;99.90;;;9.30;65.19;94048.91;5028156;28;20452;-55
2022/11/24 05:12:34;;;;;;;11.43;7.90;;;9.30;99.90;;;9.43;64.89;94052.91;5024527;28;20760;-57
2022/11/24 05:15:02;;;;;;;14.70;8.47;;;9.30;99.90;;;9.48;65.20;94050.66;5027904;28;21017;-55
2022/11/24 05:17:30;;;;;;;20.07;10.00;;;9.40;99.90;;;9.55;64.86;94056.94;5024731;28;20488;-56
2022/11/24 05:19:58;;;;;;;14.00;7.30;;;9.40;99.90;;;9.58;64.95;94053.19;5027193;28;20496;-54
2022/11/24 05:22:25;;;;;;;14.00;8.23;;;9.50;99.90;;;9.61;65.04;94051.09;5027527;28;20842;-56
2022/11/24 05:24:53;;;;;;;16.27;8.37;;;9.50;99.90;;;9.62;65.18;94047.50;5024141;28;20803;-57
2022/11/24 05:27:20;;;;;;;9.83;7.60;;;9.60;99.90;;;9.72;64.87;94057.88;5026193;28;20456;-58
2022/11/24 05:29:48;;;;;;;19.43;8.00;;;9.60;99.90;;;9.75;64.89;94054.13;5025329;28;20480;-58
2022/11/24 05:32:15;;;;;;;19.30;7.83;;;9.70;99.90;;;9.77;64.84;94058.22;5021296;28;20464;-54
2022/11/24 05:34:44;;;;;;;36.03;10.10;;;9.70;99.90;;;9.81;64.89;94064.84;5024136;28;20858;-56
2022/11/24 05:37:11;;;;;;;16.40;9.70;;;9.70;99.90;;;9.84;65.02;94074.22;5022026;28;20824;-57
2022/11/24 05:39:39;;;;;;;26.87;9.87;;;9.80;99.90;;;9.88;65.11;94067.66;5022181;28;20502;-56
2022/11/24 05:44:48;;;;;;;24.23;11.40;;;9.80;99.90;;;9.96;64.96;94080.84;5024382;28;20452;-57
2022/11/24 05:47:15;;;;;;;22.60;10.13;;;9.90;99.90;;;9.99;64.34;94070.03;5021229;28;20519;-56
2022/11/24 05:49:44;;;;;;;20.13;10.10;;;9.90;99.90;;;10.00;64.50;94082.16;5024540;28;20473;-62
2022/11/24 05:52:11;;;;;;;19.37;8.97;;;9.90;99.90;;;10.03;64.25;94078.41;5026807;28;20452;-55
2022/11/24 05:54:38;;;;;;;30.57;9.33;;;9.90;99.90;;;10.02;64.35;94077.59;5026326;28;21081;-56
2022/11/24 05:57:06;;;;;;;16.90;9.00;;;9.90;99.90;;;10.03;64.42;94075.78;5025729;28;20965;-57
2022/11/24 05:59:33;;;;;;;21.47;9.17;;;9.90;99.80;;;10.05;64.33;94079.91;5025333;28;21020;-56
2022/11/24 06:02:00;;;;;;;19.37;9.60;;;9.90;99.70;;;10.08;64.31;94081.38;5024466;28;20464;-59
2022/11/24 06:04:28;;;;;;;19.27;9.03;;;10.00;99.30;;;10.11;64.18;94088.16;5025131;28;20515;-57
2022/11/24 06:06:56;;;;;;;20.33;10.30;;;10.00;99.20;;;10.15;64.14;94089.50;5024733;28;20456;-57
2022/11/24 06:09:23;;;;;;;20.87;9.60;;;10.00;99.30;;;10.18;64.22;94083.91;5025398;28;20878;-55
2022/11/24 06:11:51;;;;;;;22.70;10.50;;;10.10;99.30;;;10.21;64.04;94081.78;5025410;28;21024;-57
2022/11/24 06:14:18;;;;;;;20.57;10.57;;;10.10;99.20;;;10.26;64.16;94091.03;5026506;28;20575;-55
2022/11/24 06:16:46;;;;;;;18.17;9.53;;;10.20;99.30;;;10.27;64.18;94096.13;5024090;28;20453;-56
2022/11/24 06:19:13;;;;;;;20.93;10.63;;;10.20;99.30;;;10.30;63.93;94090.56;5026472;28;20985;-59
2022/11/24 06:21:41;;;;;;;19.73;9.80;;;10.20;99.20;;;10.32;63.98;94093.84;5025829;28;21014;-54
2022/11/24 06:24:10;;;;;;;28.97;12.27;;;10.20;99.20;;;10.34;63.85;94094.53;5025942;28;20504;-58
2022/11/24 06:26:37;;;;;;;26.53;10.80;;;10.30;99.20;;;10.34;63.82;94097.16;5026694;28;20453;-56
2022/11/24 06:29:04;;;;;;;20.93;8.70;;;10.30;99.00;;;10.32;63.40;94104.34;5026633;28;20465;-58
2022/11/24 06:31:32;;;;;;;25.50;7.37;;;10.20;98.70;;;10.29;63.26;94115.19;5026434;28;20906;-57
2022/11/24 06:33:59;;;;;;;15.13;7.17;;;10.20;98.60;;;10.27;63.33;94118.94;5026590;28;20479;-57
2022/11/24 06:36:27;;;;;;;13.97;8.23;;;10.20;98.50;;;10.26;63.08;94128.63;5026469;28;20829;-55
2022/11/24 06:38:54;;;;;;;16.67;8.40;;;10.20;98.50;;;10.22;63.18;94136.00;5026628;28;20496;-56
2022/11/24 06:41:23;;;;;;;18.60;9.10;;;10.20;98.50;;;10.19;63.24;94146.00;5025251;28;20445;-58
2022/11/24 06:43:50;;;;;;;25.27;9.80;;;10.10;98.50;;;10.14;63.14;94141.19;5026211;28;20827;-55
2022/11/24 06:46:17;;;;;;;21.40;9.83;;;10.10;98.50;;;10.12;63.31;94148.44;5026046;28;20460;-58
2022/11/24 06:48:44;;;;;;;20.80;9.73;;;10.10;98.60;;;10.11;63.49;94156.47;5025898;28;20989;-56
2022/11/24 06:51:12;;;;;;;17.80;9.70;;;10.00;98.50;;;10.08;63.63;94152.34;5025372;28;20460;-58
2022/11/24 06:53:40;;;;;;;24.60;10.53;;;10.00;98.70;;;10.10;63.61;94160.06;5025436;28;20496;-54
2022/11/24 06:56:09;;;;;;;17.40;10.07;;;10.00;98.70;;;10.13;63.71;94165.00;5025111;28;20457;-57
2022/11/24 06:58:42;;;;;;;21.93;12.43;;;10.00;98.90;;;10.14;63.56;94167.47;5023183;28;20484;-57
2022/11/24 07:01:09;;;;;;;27.20;12.47;;;10.10;98.80;;;10.15;63.72;94173.56;5025390;28;20456;-60
2022/11/24 07:03:36;;;;;;;21.43;10.80;;;10.10;98.70;;;10.16;63.62;94180.47;5024842;28;20487;-55
2022/11/24 07:06:04;;;;;;;23.03;10.33;;;10.10;98.80;;;10.17;65.03;94176.88;5025661;28;20518;-55
2022/11/24 07:08:31;;;;;;;23.87;9.80;;;10.10;99.90;;;10.23;65.89;94182.31;5026064;28;20555;-54
2022/11/24 07:11:04;;;;;;;18.73;9.70;;;10.10;99.90;;;10.28;65.57;94189.75;5026184;28;20507;-58
2022/11/24 07:13:31;;;;;;;26.67;9.60;;;10.20;99.90;;;10.32;64.88;94185.84;5024841;28;20510;-56
2022/11/24 07:16:00;;;;;;;20.13;9.93;;;10.20;99.90;;;10.33;64.40;94194.56;5025452;28;20453;-56
2022/11/24 07:18:27;;;;;;;20.27;9.97;;;10.20;99.60;;;10.32;64.44;94201.59;5025583;28;20559;-56
2022/11/24 07:20:54;;;;;;;15.53;9.37;;;10.20;99.70;;;10.30;64.62;94202.72;5025307;28;20991;-57
2022/11/24 07:23:22;;;;;;;12.63;7.93;;;10.30;99.90;;;10.34;64.48;94207.56;5025786;28;20957;-56
2022/11/24 07:25:49;;;;;;;13.97;8.47;;;10.20;99.80;;;10.34;64.97;94209.38;5025863;28;20467;-58
2022/11/24 07:28:16;;;;;;;10.63;7.67;;;10.30;99.90;;;10.30;64.56;94214.09;5025736;28;20452;-57
2022/11/24 07:30:43;;;;;;;13.40;7.90;;;10.20;99.80;;;10.30;64.96;94223.75;5025490;28;20491;-54
2022/11/24 07:33:12;;;;;;;9.63;7.00;;;10.20;99.90;;;10.31;64.95;94217.53;5021533;28;20526;-56
2022/11/24 07:35:39;;;;;;;10.33;7.10;;;10.20;99.80;;;10.32;65.05;94229.69;5022333;28;20554;-56
2022/11/24 07:38:07;;;;;;;14.90;6.97;;;10.20;99.90;;;10.29;64.67;94232.63;5025770;28;20456;-56
2022/11/24 07:40:34;;;;;;;7.97;7.17;;;10.20;99.80;;;10.25;64.85;94237.34;5025602;28;20992;-59
2022/11/24 07:43:01;;;;;;;8.93;7.13;;;10.20;99.90;;;10.22;65.02;94235.03;5025606;28;20448;-54
2022/11/24 07:45:28;;;;;;;11.57;8.23;;;10.20;99.90;;;10.20;64.89;94239.63;5025507;28;20542;-53
2022/11/24 07:47:56;;;;;;;12.67;7.30;;;10.10;99.80;;;10.17;64.94;94242.56;5025416;28;20449;-56
2022/11/24 07:50:24;;;;;;;10.97;7.50;;;10.10;99.80;;;10.12;65.00;94237.75;5025468;28;20515;-57
2022/11/24 07:52:52;;;;;;;7.23;6.53;;;10.00;99.70;;;10.09;65.14;94248.56;5025704;28;20984;-56
2022/11/24 07:55:19;;;;;;;10.13;6.40;;;10.00;99.90;;;10.04;64.90;94262.16;5025446;28;20476;-55
2022/11/24 07:57:46;;;;;;;8.77;6.10;;;10.00;99.80;;;9.99;64.89;94269.69;5025213;28;20992;-55
2022/11/24 08:00:15;;;;;;;7.57;6.10;;;9.90;99.90;;;9.93;65.47;94269.44;5024696;28;20505;-56
2022/11/24 08:02:42;;;;;;;7.17;6.10;;;9.90;99.90;;;9.89;65.32;94266.31;5025569;28;20448;-56
2022/11/24 08:05:09;;;;;;;6.73;5.77;;;9.80;99.90;;;9.86;65.29;94269.22;5025396;28;20488;-57
2022/11/24 08:07:38;;;;;;;8.93;6.50;;;9.80;99.90;;;9.84;65.16;94276.44;5025488;28;20452;-57
2022/11/24 08:10:07;;;;;;;10.50;5.80;;;9.80;99.90;;;9.84;65.20;94281.69;5025965;28;20580;-56
2022/11/24 08:12:34;;;;;;;6.70;5.70;;;9.80;99.90;;;9.84;65.25;94276.44;5029301;28;20641;-55
2022/11/24 08:15:02;;;;;;;8.10;5.63;;;9.80;99.90;;;9.83;65.28;94280.03;5029119;28;20558;-57
2022/11/24 08:17:29;;;;;;;7.43;6.73;;;9.80;99.90;;;9.83;65.24;94282.66;5025075;28;20774;-58
2022/11/24 08:19:56;;;;;;;6.93;4.90;;;9.80;99.90;;;9.82;65.09;94276.59;5028661;28;20500;-57
2022/11/24 08:22:23;;;;;;;6.27;5.03;;;9.70;99.90;;;9.81;65.12;94280.19;5029589;28;20952;-56
2022/11/24 08:24:52;;;;;;;6.87;5.30;;;9.70;99.90;;;9.80;65.26;94285.59;5029722;28;21018;-57
2022/11/24 08:27:20;;;;;;;4.87;4.40;;;9.70;99.90;;;9.77;65.17;94291.16;5029038;28;20459;-57
2022/11/24 08:29:47;;;;;;;6.60;5.30;;;9.70;99.90;;;9.74;64.85;94296.69;5028999;28;20476;-58
2022/11/24 08:32:15;;;;;;;4.80;4.03;;;9.70;99.90;;;9.72;64.71;94296.03;5028349;28;20459;-57
2022/11/24 08:34:42;;;;;;;5.30;4.80;;;9.60;99.90;;;9.66;65.21;94298.25;5029242;28;20483;-58
2022/11/24 08:37:09;;;;;;;4.00;3.70;;;9.60;99.90;;;9.61;64.97;94297.88;5029288;28;20449;-58
2022/11/24 08:39:36;;;;;;;3.80;3.50;;;9.60;99.90;;;9.61;64.71;94308.38;5029069;28;20488;-57
2022/11/24 08:42:05;;;;;;;2.90;2.70;;;9.50;99.90;;;9.58;64.64;94308.69;5029051;28;20461;-55
2022/11/24 08:44:33;;;;;;;10.00;2.90;;;9.50;99.90;;;9.57;64.53;94316.69;5028930;28;20476;-56
2022/11/24 08:47:00;;;;;;;2.47;2.27;;;9.50;99.90;;;9.55;64.48;94314.22;5028227;28;20837;-56
2022/11/24 08:49:27;;;;;;;2.40;1.53;;;9.50;99.70;;;9.54;64.01;94328.31;5028678;28;20473;-57
2022/11/24 08:51:57;;;;;;;2.10;2.00;;;9.50;99.60;;;9.51;64.17;94316.31;5028633;28;20460;-57
2022/11/24 08:54:26;;;;;;;4.70;1.80;;;9.50;99.70;;;9.49;63.98;94323.50;5029028;28;20483;-56
2022/11/24 08:56:54;;;;;;;1.57;1.47;;;9.40;99.50;;;9.47;63.65;94322.00;5028446;28;20452;-55
2022/11/24 08:59:22;;;;;;;1.53;1.43;;;9.40;99.40;;;9.44;63.24;94323.13;5025015;28;20492;-58
2022/11/24 09:01:50;;;;;;;2.80;1.53;;;9.40;99.30;;;9.41;63.45;94322.59;5027947;28;20449;-56
2022/11/24 09:04:17;;;;;;;2.10;1.90;;;9.40;99.20;;;9.38;63.31;94318.47;5028556;28;20479;-55
2022/11/24 09:06:44;;;;;;;1.87;1.37;;;9.40;99.10;;;9.37;63.17;94321.22;5028422;28;20445;-56
2022/11/24 09:09:12;;;;;;;1.47;1.13;;;9.30;98.90;;;9.36;63.33;94323.03;5028351;28;20484;-58
2022/11/24 09:11:39;;;;;;;1.60;0.87;;;9.30;98.80;;;9.35;62.90;94323.19;5028432;28;20457;-56
2022/11/24 09:14:06;;;;;;;0.93;0.80;;;9.30;98.70;;;9.31;62.21;94320.84;5028282;28;20476;-57
2022/11/24 09:16:35;;;;;;;1.67;1.57;;;9.30;98.30;;;9.30;62.97;94327.06;5027841;28;20459;-53
2022/11/24 09:19:04;;;;;;;1.93;1.07;;;9.30;98.40;;;9.30;62.78;94337.56;5028309;28;20500;-57
2022/11/24 09:21:32;;;;;;;1.50;1.40;;;9.30;98.30;;;9.30;62.49;94326.25;5027812;28;20965;-58
2022/11/24 09:24:00;;;;;;;1.00;0.90;;;9.30;98.40;;;9.31;62.43;94330.50;5028201;28;21075;-56
2022/11/24 09:26:28;;;;;;;1.27;1.13;;;9.30;98.40;;;9.32;62.28;94338.22;5028436;28;20808;-56
2022/11/24 09:28:56;;;;;;;1.40;1.30;;;9.30;98.30;;;9.31;62.14;94335.75;5027913;28;20477;-54
2022/11/24 09:31:25;;;;;;;1.20;1.10;;;9.30;98.20;;;9.28;62.32;94334.25;5027151;28;20509;-54
2022/11/24 09:33:53;;;;;;;2.00;1.27;;;9.30;98.20;;;9.29;62.29;94341.13;5027373;28;20885;-58
2022/11/24 09:36:21;;;;;;;1.93;0.80;;;9.20;98.20;;;9.29;62.53;94342.94;5023648;28;20567;-58
2022/11/24 09:38:48;;;;;;;1.00;0.90;;;9.20;98.30;;;9.29;62.38;94353.44;5023992;28;20569;-58
2022/11/24 09:41:47;;;;;;;1.20;1.10;;;9.30;98.40;;;9.29;62.76;94349.00;5027822;28;20563;-56
2022/11/24 09:44:52;;;;;;;2.17;1.20;;;9.30;98.20;;;9.29;62.04;94354.25;5024409;28;20560;-58
2022/11/24 09:47:26;;;;;;;1.20;1.00;;;9.20;98.10;;;9.27;62.05;94350.97;5010678;28;20515;-56
2022/11/24 09:49:58;;;;;;;1.00;0.90;;;9.30;97.90;;;9.24;62.17;94353.88;5027743;28;20464;-58
2022/11/24 09:52:38;;;;;;;1.30;1.20;;;9.20;97.80;;;9.22;60.66;94349.78;5023608;28;20453;-56
2022/11/24 09:55:27;;;;;;;0.80;0.70;;;9.20;97.30;;;9.17;61.22;94360.69;5025267;28;20476;-56
2022/11/24 09:58:06;;;;;;;3.73;1.30;;;9.10;97.30;;;9.12;61.20;94344.53;5024327;28;20959;-56
2022/11/24 10:00:34;;;;;;;2.90;1.47;;;9.10;97.30;;;9.08;61.19;94369.41;5026525;28;20504;-57
2022/11/24 10:03:01;;;;;;;1.37;1.27;;;9.10;97.30;;;9.03;61.21;94361.13;5027085;28;20560;-59
2022/11/24 10:05:32;;;;;;;5.03;1.50;;;9.00;97.30;;;9.00;61.47;94361.41;5027433;28;21053;-57
2022/11/24 10:08:10;;;;;;;8.83;2.20;;;9.00;97.40;;;8.95;61.50;94361.84;5023087;28;20433;-56
2022/11/24 10:10:44;;;;;;;2.33;1.53;;;9.00;97.40;;;8.93;61.55;94363.78;5025104;28;20476;-56
2022/11/24 10:13:22;;;;;;;1.70;1.60;;;8.90;97.50;;;8.94;61.56;94368.91;5027044;28;20507;-59
2022/11/24 10:15:55;;;;;;;1.67;1.57;;;8.90;97.50;;;8.95;61.04;94372.34;5023634;28;20441;-56
2022/11/24 10:18:47;;;;;;;4.40;1.70;;;8.90;97.20;;;8.95;61.19;94370.56;5024801;28;20472;-57
2022/11/24 10:21:34;;;;;;;2.37;2.17;;;8.90;97.20;;;8.97;61.08;94375.66;5024851;28;20510;-55
2022/11/24 10:24:28;;;;;;;1.70;1.57;;;9.00;97.20;;;8.99;61.16;94376.34;5027341;28;20658;-57
2022/11/24 10:27:00;;;;;;;2.17;1.77;;;8.90;97.20;;;8.99;61.55;94378.97;5026361;28;20977;-53
2022/11/24 10:29:32;;;;;;;1.50;1.40;;;9.00;97.20;;;8.99;61.19;94378.97;5025654;28;20560;-56
2022/11/24 10:31:59;;;;;;;1.80;1.70;;;9.00;97.20;;;8.97;60.90;94375.66;5026344;28;20440;-57
2022/11/24 10:34:31;;;;;;;16.53;2.07;;;9.00;96.90;;;8.94;60.67;94384.63;5025188;28;20472;-55
2022/11/24 10:37:03;;;;;;;2.17;1.97;;;8.90;96.80;;;8.93;60.88;94382.16;5026381;28;20503;-58